Time;durP1;ratioP1;P1;durP2;ratioP2;P2;SDS_P1;SDS_P2;PMS_P1;PMS_P2;Temp;Humidity;BMP_temperature;BMP_pressure;BME280_temperature;BME280_humidity;BME280_pressure;Samples;Min_cycle;Max_cycle;Signal;HPM_P1;HPM_P2
2022/01/27 00:00:38;;;;;;;;;50.50;38.75;;;;;9.57;48.78;102830.88;5072148;28;45536;-70
2022/01/27 00:05:34;;;;;;;;;50.75;40.25;;;;;9.50;49.04;102836.09;5072365;28;45571;-71
2022/01/27 00:10:51;;;;;;;;;49.25;37.00;;;;;9.41;49.05;102831.50;5072278;28;45363;-67
2022/01/27 00:13:19;;;;;;;;;53.25;40.75;;;;;9.50;49.48;102830.59;5072179;28;45687;-68
2022/01/27 00:15:48;;;;;;;;;44.50;35.25;;;;;9.51;48.80;102832.34;5072030;28;45414;-66
2022/01/27 00:18:18;;;;;;;;;43.00;35.50;;;;;9.51;48.83;102821.38;5072004;28;46025;-66
2022/01/27 00:20:45;;;;;;;;;49.25;38.00;;;;;9.55;48.75;102822.81;5053547;28;45785;-65
2022/01/27 00:23:11;;;;;;;;;51.00;36.50;;;;;9.59;49.03;102824.22;5072268;28;45407;-67
2022/01/27 00:25:37;;;;;;;;;52.00;39.75;;;;;9.62;48.64;102818.44;5036777;28;45477;-65
2022/01/27 00:28:05;;;;;;;;;49.25;37.00;;;;;9.59;48.98;102818.75;5071549;28;45543;-66
2022/01/27 00:30:31;;;;;;;;;49.75;36.75;;;;;9.61;48.53;102808.50;5072129;28;45316;-65
2022/01/27 00:32:57;;;;;;;;;48.00;36.00;;;;;9.60;48.47;102811.41;5071976;28;45413;-66
2022/01/27 00:35:22;;;;;;;;;43.00;36.25;;;;;9.57;48.65;102807.09;5067181;28;45407;-67
2022/01/27 00:37:48;;;;;;;;;42.33;34.67;;;;;9.59;48.73;102807.78;5051946;28;45529;-67
2022/01/27 00:40:13;;;;;;;;;22.00;18.00;;;;;9.60;48.74;102801.28;5052200;28;45869;-67
2022/01/27 00:42:40;;;;;;;;;46.25;37.50;;;;;9.61;48.60;102804.88;5051751;28;45380;-66
2022/01/27 00:45:06;;;;;;;;;46.00;34.00;;;;;9.63;48.72;102800.13;5052751;28;45877;-68
2022/01/27 00:47:31;;;;;;;;;46.00;33.67;;;;;9.63;48.29;102792.78;5051850;28;45969;-69
2022/01/27 00:49:57;;;;;;;;;43.50;34.25;;;;;9.64;48.75;102791.75;5066549;28;46481;-67
2022/01/27 00:52:37;;;;;;;;;51.00;36.25;;;;;9.63;48.61;102784.56;5072078;28;45812;-68
2022/01/27 00:55:04;;;;;;;;;48.25;36.00;;;;;9.66;48.72;102792.47;5072766;28;45709;-68
2022/01/27 00:57:52;;;;;;;;;42.33;35.00;;;;;9.66;48.74;102781.50;5072220;28;45659;-67
2022/01/27 01:00:26;;;;;;;;;38.33;33.33;;;;;9.64;48.71;102777.19;5070940;28;45931;-66
2022/01/27 01:03:01;;;;;;;;;41.67;35.00;;;;;9.65;48.88;102768.81;5052558;28;45443;-67
2022/01/27 01:19:20;;;;;;;;;35.00;28.00;;;;;9.54;49.28;102755.34;5071012;28;45554;-68
2022/01/27 01:32:52;;;;;;;;;45.00;33.00;;;;;9.68;48.97;102737.50;4983467;28;46597;-67
2022/01/27 01:35:27;;;;;;;;;46.00;37.00;;;;;9.67;48.79;102736.66;5051928;28;45907;-67
2022/01/27 01:37:53;;;;;;;;;51.25;36.25;;;;;9.69;49.05;102723.66;5074785;28;45545;-68
2022/01/27 01:40:19;;;;;;;;;42.67;34.33;;;;;9.75;48.61;102729.56;5073917;28;45580;-67
2022/01/27 01:42:45;;;;;;;;;46.67;36.00;;;;;9.79;48.33;102728.22;5073138;28;46006;-68
2022/01/27 01:45:14;;;;;;;;;42.50;34.25;;;;;9.66;48.67;102723.97;5073581;28;45408;-68
2022/01/27 01:47:40;;;;;;;;;41.75;35.00;;;;;9.65;48.72;102721.38;5073356;28;45386;-68
2022/01/27 01:50:08;;;;;;;;;45.00;37.00;;;;;9.70;48.54;102721.78;5073661;28;45370;-67
2022/01/27 01:52:34;;;;;;;;;44.00;33.33;;;;;9.71;48.22;102724.38;5089489;27;47541;-67
2022/01/27 01:55:03;;;;;;;;;39.67;33.67;;;;;9.73;48.62;102718.75;5055407;28;45566;-69
2022/01/27 01:57:29;;;;;;;;;46.67;34.33;;;;;9.68;48.60;102713.72;5074384;28;45662;-69
2022/01/27 01:59:55;;;;;;;;;39.25;31.25;;;;;9.72;48.49;102720.63;5038783;28;45398;-69
2022/01/27 02:02:20;;;;;;;;;50.50;36.25;;;;;9.73;48.88;102721.50;5073568;28;46140;-67
2022/01/27 02:04:46;;;;;;;;;42.50;33.00;;;;;9.73;48.89;102713.28;5074226;28;45664;-66
2022/01/27 02:17:58;;;;;;;;;46.25;34.75;;;;;9.69;49.10;102709.97;5031939;28;45563;-67
2022/01/27 02:19:06;;;;;;;;;44.00;35.00;;;;;9.69;49.33;102709.97;5074432;28;45773;-66
2022/01/27 02:21:31;;;;;;;;;44.75;37.00;;;;;9.70;49.18;102703.47;5073637;28;45535;-65
2022/01/27 02:23:56;;;;;;;;;50.75;35.25;;;;;9.70;48.82;102706.22;5064260;28;46499;-66
2022/01/27 02:26:23;;;;;;;;;42.75;33.25;;;;;9.69;49.35;102709.97;5064666;28;45734;-66
2022/01/27 02:28:49;;;;;;;;;51.50;38.25;;;;;9.68;49.37;102708.22;5074321;28;45373;-67
2022/01/27 02:31:14;;;;;;;;;47.50;38.50;;;;;9.70;49.21;102700.75;5074402;28;45435;-67
2022/01/27 02:33:40;;;;;;;;;43.50;34.25;;;;;9.73;49.30;102705.06;5074000;28;46200;-66
2022/01/27 02:36:05;;;;;;;;;35.50;30.50;;;;;9.75;49.21;102691.19;5073828;28;45781;-67
2022/01/27 02:38:31;;;;;;;;;46.50;36.75;;;;;9.77;49.48;102700.97;5089458;27;45756;-67
2022/01/27 02:40:59;;;;;;;;;51.50;37.25;;;;;9.78;49.31;102693.63;5072219;28;45453;-69
2022/01/27 02:43:24;;;;;;;;;43.50;32.50;;;;;9.80;49.20;102697.91;5073445;28;46000;-68
2022/01/27 02:45:54;;;;;;;;;51.75;40.75;;;;;9.79;49.04;102693.47;5073978;28;45444;-68
2022/01/27 02:48:20;;;;;;;;;44.00;35.75;;;;;9.75;48.72;102683.81;5074022;28;45358;-68
2022/01/27 02:50:45;;;;;;;;;48.50;37.50;;;;;9.82;49.17;102684.06;5074077;28;45860;-64
2022/01/27 02:53:11;;;;;;;;;54.75;41.50;;;;;9.80;49.05;102686.09;5073493;28;45726;-67
2022/01/27 02:55:37;;;;;;;;;45.25;32.25;;;;;9.77;49.55;102686.41;5073510;28;45678;-67
2022/01/27 02:58:04;;;;;;;;;48.50;36.25;;;;;9.78;49.38;102680.78;5055485;28;45636;-72
2022/01/27 03:00:30;;;;;;;;;50.75;38.50;;;;;9.78;49.07;102678.03;5073360;28;45923;-68
2022/01/27 03:02:56;;;;;;;;;51.75;39.50;;;;;9.78;49.49;102679.94;5054784;28;47753;-67
2022/01/27 03:05:21;;;;;;;;;51.25;38.25;;;;;9.78;49.19;102667.06;5073916;28;45450;-67
2022/01/27 03:07:48;;;;;;;;;49.25;40.25;;;;;9.82;49.26;102681.31;5073805;28;45437;-71
2022/01/27 03:10:18;;;;;;;;;48.00;34.75;;;;;9.81;49.05;102669.50;5073516;28;45517;-66
2022/01/27 03:12:45;;;;;;;;;44.25;35.75;;;;;9.78;49.27;102663.47;5073038;28;45901;-67
2022/01/27 03:15:11;;;;;;;;;52.25;37.75;;;;;9.89;48.79;102671.44;5072727;28;45465;-69
2022/01/27 03:17:41;;;;;;;;;48.50;35.25;;;;;9.96;48.75;102677.19;5072656;28;45684;-68
2022/01/27 03:20:08;;;;;;;;;47.00;37.25;;;;;9.97;49.03;102673.41;5072708;28;45586;-67
2022/01/27 03:22:34;;;;;;;;;50.75;34.50;;;;;9.97;49.05;102666.06;5087899;27;47367;-69
2022/01/27 03:24:59;;;;;;;;;51.75;38.25;;;;;9.95;48.90;102669.97;5072508;28;45393;-67
2022/01/27 03:27:27;;;;;;;;;45.25;36.25;;;;;9.91;48.77;102663.97;5072222;28;45423;-67
2022/01/27 03:29:52;;;;;;;;;45.75;35.25;;;;;9.93;49.02;102670.13;5072454;28;45903;-66
2022/01/27 03:32:19;;;;;;;;;48.00;36.75;;;;;9.91;49.47;102674.91;5053681;28;47152;-68
2022/01/27 03:34:45;;;;;;;;;49.75;36.00;;;;;9.87;49.40;102677.09;5072471;28;45746;-68
2022/01/27 03:37:10;;;;;;;;;46.25;38.00;;;;;9.81;49.32;102661.28;5088351;27;45425;-68
2022/01/27 03:39:38;;;;;;;;;52.75;38.50;;;;;9.84;49.23;102674.66;5072437;28;45381;-69
2022/01/27 03:42:06;;;;;;;;;57.50;41.75;;;;;9.81;49.44;102674.13;5072449;28;45671;-69
2022/01/27 03:44:32;;;;;;;;;50.00;40.00;;;;;9.78;49.89;102677.19;5053737;28;45921;-69
2022/01/27 03:46:57;;;;;;;;;52.50;40.50;;;;;9.78;49.49;102680.78;5072229;28;45427;-68
2022/01/27 03:49:23;;;;;;;;;51.75;38.00;;;;;9.77;49.43;102676.31;5053134;28;46305;-71
2022/01/27 03:51:49;;;;;;;;;47.00;36.75;;;;;9.74;49.28;102662.91;5071705;28;45964;-69
2022/01/27 03:54:14;;;;;;;;;52.50;40.00;;;;;9.80;49.33;102661.44;5071868;28;45374;-70
2022/01/27 03:56:40;;;;;;;;;45.75;37.00;;;;;9.72;49.38;102654.00;5072101;28;45628;-70
2022/01/27 03:59:05;;;;;;;;;55.00;42.75;;;;;9.78;49.88;102666.22;5072054;28;45830;-71
2022/01/27 04:01:31;;;;;;;;;46.75;39.00;;;;;9.77;50.05;102668.09;5071074;28;46342;-69
2022/01/27 04:03:59;;;;;;;;;50.50;39.50;;;;;9.76;49.78;102666.38;5071940;28;45394;-70
2022/01/27 04:06:33;;;;;;;;;55.50;40.50;;;;;9.79;49.81;102651.47;5072484;28;45732;-69
2022/01/27 04:09:00;;;;;;;;;42.75;35.25;;;;;9.84;49.14;102658.22;5072081;28;45738;-69
2022/01/27 04:11:26;;;;;;;;;51.25;40.50;;;;;9.89;49.60;102660.50;5072019;28;45946;-69
2022/01/27 04:13:51;;;;;;;;;49.50;38.00;;;;;9.90;49.53;102664.97;5053114;28;45828;-69
2022/01/27 04:16:16;;;;;;;;;49.50;37.50;;;;;9.85;49.19;102665.44;5072288;28;46172;-70
2022/01/27 04:18:42;;;;;;;;;47.25;37.00;;;;;9.81;49.54;102669.50;5072349;28;45648;-68
2022/01/27 04:21:07;;;;;;;;;50.50;36.50;;;;;9.85;49.68;102659.06;5072009;28;46174;-70
2022/01/27 04:23:33;;;;;;;;;48.75;37.50;;;;;9.87;49.19;102662.53;5062913;28;45523;-69
2022/01/27 04:25:58;;;;;;;;;53.50;41.50;;;;;9.83;49.46;102666.59;5064328;28;46018;-67
2022/01/27 04:28:28;;;;;;;;;52.25;39.00;;;;;9.81;49.85;102668.66;5071503;28;45531;-70
2022/01/27 04:30:56;;;;;;;;;49.25;37.75;;;;;9.87;49.75;102668.03;5071578;28;46052;-70
2022/01/27 04:33:28;;;;;;;;;49.75;37.75;;;;;9.90;49.37;102654.00;5052754;28;45494;-68
2022/01/27 04:35:57;;;;;;;;;38.75;29.50;;;;;9.93;48.95;102656.44;5071912;28;45741;-69
2022/01/27 04:41:30;;;;;;;;;45.25;36.50;;;;;9.75;50.01;102661.91;5024399;28;45799;-70
2022/01/27 04:44:04;;;;;;;;;54.25;42.00;;;;;9.69;49.71;102668.00;5071468;28;45386;-68
2022/01/27 04:49:00;;;;;;;;;48.75;37.75;;;;;9.77;49.81;102661.75;5071404;28;45301;-69
2022/01/27 04:51:25;;;;;;;;;43.00;34.33;;;;;9.81;49.42;102660.44;5071378;28;46162;-69
2022/01/27 04:56:38;;;;;;;;;49.25;38.75;;;;;9.83;49.97;102655.63;5071282;28;45401;-68
2022/01/27 04:59:09;;;;;;;;;37.50;34.00;;;;;9.84;49.80;102641.78;5052352;28;45826;-68
2022/01/27 05:01:41;;;;;;;;;50.75;38.00;;;;;9.86;49.50;102652.59;5070432;28;45518;-67
2022/01/27 05:04:11;;;;;;;;;48.75;36.00;;;;;9.86;49.74;102655.31;5071235;28;45383;-68
2022/01/27 05:06:36;;;;;;;;;48.50;37.25;;;;;9.89;49.53;102649.53;5074538;28;45475;-68
2022/01/27 05:09:03;;;;;;;;;48.25;34.00;;;;;9.90;49.12;102648.53;5074726;28;45758;-68
2022/01/27 05:11:33;;;;;;;;;47.25;37.75;;;;;9.89;49.19;102649.53;5074537;28;45364;-69
2022/01/27 05:14:12;;;;;;;;;46.25;36.50;;;;;9.86;49.77;102645.22;5071925;28;45702;-67
2022/01/27 05:16:38;;;;;;;;;39.75;34.50;;;;;9.87;49.88;102637.88;5071924;28;45762;-67
2022/01/27 05:19:04;;;;;;;;;50.50;39.00;;;;;9.88;49.83;102647.81;5073969;28;45525;-69
2022/01/27 05:21:32;;;;;;;;;48.75;36.25;;;;;9.86;49.63;102633.41;5073805;28;45649;-67
2022/01/27 05:23:58;;;;;;;;;49.75;36.50;;;;;9.88;49.56;102640.47;5074210;28;45761;-69
2022/01/27 05:26:23;;;;;;;;;51.50;39.25;;;;;9.91;49.64;102636.53;5056041;28;45433;-68
2022/01/27 05:28:49;;;;;;;;;50.67;36.00;;;;;9.90;49.51;102635.66;5073498;28;45822;-71
2022/01/27 05:31:14;;;;;;;;;49.75;36.75;;;;;9.90;49.18;102646.63;5073680;28;45806;-68
2022/01/27 05:33:40;;;;;;;;;60.00;45.00;;;;;9.90;49.71;102648.53;5044177;28;45923;-71
2022/01/27 05:36:06;;;;;;;;;55.00;40.25;;;;;9.85;49.82;102639.88;5074194;28;45794;-69
2022/01/27 05:38:31;;;;;;;;;44.50;34.00;;;;;9.83;49.37;102633.72;5073820;28;45836;-69
2022/01/27 05:40:57;;;;;;;;;49.50;37.25;;;;;9.79;50.20;102644.16;5088905;27;47835;-69
2022/01/27 05:43:22;;;;;;;;;49.50;35.50;;;;;9.75;50.04;102642.72;5073303;28;45818;-69
2022/01/27 05:45:48;;;;;;;;;55.75;42.00;;;;;9.78;50.27;102641.56;5073331;28;45398;-67
2022/01/27 05:48:13;;;;;;;;;51.25;38.25;;;;;9.75;50.71;102644.63;5073054;28;45650;-70
2022/01/27 05:50:39;;;;;;;;;45.00;35.25;;;;;9.78;50.41;102639.69;5073311;28;45390;-71
2022/01/27 05:53:04;;;;;;;;;47.50;38.75;;;;;9.84;50.32;102624.50;5073660;28;45473;-69
2022/01/27 05:55:30;;;;;;;;;51.25;41.25;;;;;9.82;50.04;102632.88;5073855;28;45351;-71
2022/01/27 05:57:56;;;;;;;;;52.75;40.00;;;;;9.86;50.39;102644.38;5055123;28;45819;-69
2022/01/27 06:00:21;;;;;;;;;44.75;36.75;;;;;9.92;50.48;102631.91;5055016;28;47335;-70
2022/01/27 06:02:46;;;;;;;;;52.00;37.50;;;;;9.99;50.58;102638.50;5071996;28;45913;-69
2022/01/27 06:05:12;;;;;;;;;41.75;33.75;;;;;10.01;49.50;102633.69;5073453;28;45636;-69
2022/01/27 06:07:38;;;;;;;;;50.00;38.75;;;;;10.01;50.00;102641.94;5055141;28;45455;-68
2022/01/27 06:10:04;;;;;;;;;49.75;37.50;;;;;10.02;50.60;102640.91;5073273;28;46131;-69
2022/01/27 06:12:29;;;;;;;;;48.50;36.00;;;;;9.98;50.71;102651.31;5073156;28;45485;-70
2022/01/27 06:14:55;;;;;;;;;52.25;37.00;;;;;9.98;50.18;102648.56;5054520;28;45841;-69
2022/01/27 06:17:20;;;;;;;;;46.50;36.00;;;;;10.01;50.22;102659.22;5073033;28;45799;-68
2022/01/27 06:19:46;;;;;;;;;51.25;38.00;;;;;10.01;50.01;102659.22;5072846;28;46256;-69
2022/01/27 06:22:13;;;;;;;;;47.75;35.25;;;;;10.00;49.85;102652.03;5073166;28;45697;-69
2022/01/27 06:24:43;;;;;;;;;45.75;36.00;;;;;10.00;50.24;102648.41;5073263;28;45483;-69
2022/01/27 06:27:12;;;;;;;;;47.00;36.50;;;;;9.95;51.02;102651.63;5073049;28;46058;-76
2022/01/27 06:29:39;;;;;;;;;48.25;36.00;;;;;9.97;50.78;102652.34;5071317;28;47989;-69
2022/01/27 06:32:05;;;;;;;;;52.50;39.50;;;;;10.02;50.27;102660.09;5072977;28;45774;-75
2022/01/27 06:34:30;;;;;;;;;52.25;39.75;;;;;10.01;50.70;102663.84;5072382;28;45497;-76
2022/01/27 06:36:57;;;;;;;;;37.75;31.75;;;;;10.04;50.86;102664.41;5072610;27;45381;-74
2022/01/27 06:39:22;;;;;;;;;48.75;35.25;;;;;10.06;50.11;102665.09;5072597;28;45406;-77
2022/01/27 06:41:48;;;;;;;;;38.67;33.00;;;;;10.01;50.97;102653.75;5071777;28;45446;-76
2022/01/27 06:44:13;;;;;;;;;43.00;35.00;;;;;10.02;50.56;102655.47;5072142;28;45514;-75
2022/01/27 06:46:39;;;;;;;;;50.50;36.50;;;;;10.17;50.36;102668.63;5072983;27;45734;-74
2022/01/27 06:49:05;;;;;;;;;47.25;37.75;;;;;10.17;50.07;102660.41;5059685;28;45970;-72
2022/01/27 06:54:06;;;;;;;;;48.00;37.00;;;;;10.24;50.47;102664.22;5080521;22;46515;-69
2022/01/27 06:56:31;;;;;;;;;48.50;36.25;;;;;10.25;50.11;102663.19;5052890;28;45852;-75
2022/01/27 06:58:57;;;;;;;;;43.67;33.33;;;;;10.27;50.13;102663.03;5054595;28;47233;-76
2022/01/27 07:01:22;;;;;;;;;48.00;36.00;;;;;10.24;49.33;102656.00;5071380;28;45786;-76
2022/01/27 07:03:47;;;;;;;;;38.67;34.33;;;;;10.27;49.89;102655.69;5066970;28;45490;-75
2022/01/27 07:06:13;;;;;;;;;46.25;37.25;;;;;10.24;50.01;102653.25;5073243;28;45571;-77
2022/01/27 07:08:39;;;;;;;;;53.50;39.00;;;;;10.21;50.01;102648.09;5054647;28;45982;-73
2022/01/27 07:11:05;;;;;;;;;47.75;37.25;;;;;10.18;50.22;102654.75;5049699;28;45521;-72
2022/01/27 07:13:30;;;;;;;;;56.25;39.50;;;;;10.20;49.51;102662.81;5068653;28;45559;-70
2022/01/27 07:15:57;;;;;;;;;48.00;37.00;;;;;10.18;50.52;102665.72;5070874;28;45849;-71
2022/01/27 07:18:22;;;;;;;;;44.50;36.00;;;;;10.16;50.18;102666.91;5071063;28;45861;-71
2022/01/27 07:20:48;;;;;;;;;50.25;40.00;;;;;10.19;50.51;102663.84;5054409;28;45938;-77
2022/01/27 07:23:13;;;;;;;;;47.25;35.00;;;;;10.18;49.81;102662.97;5072044;28;45981;-71
2022/01/27 07:25:39;;;;;;;;;51.75;38.25;;;;;10.16;50.45;102662.25;5053148;28;46982;-70
2022/01/27 07:28:04;;;;;;;;;45.00;36.50;;;;;10.16;50.42;102661.41;5070207;28;46218;-70
2022/01/27 07:30:30;;;;;;;;;46.00;36.25;;;;;10.16;50.77;102664.16;5071363;28;45708;-71
2022/01/27 07:32:56;;;;;;;;;47.25;34.25;;;;;10.15;49.93;102660.56;5051835;28;45878;-78
2022/01/27 07:35:21;;;;;;;;;48.50;35.75;;;;;10.18;50.29;102659.34;5070379;28;46236;-69
2022/01/27 07:37:47;;;;;;;;;48.50;35.75;;;;;10.21;50.62;102659.91;5054010;28;46629;-72
2022/01/27 07:40:13;;;;;;;;;40.33;33.33;;;;;10.29;50.45;102661.84;5071187;27;45746;-72
2022/01/27 07:42:39;;;;;;;;;48.00;36.33;;;;;10.32;50.89;102667.03;5071101;28;45719;-70
2022/01/27 07:45:05;;;;;;;;;48.00;37.00;;;;;10.39;49.56;102668.13;5070598;28;47114;-75
2022/01/27 07:47:31;;;;;;;;;38.00;30.67;;;;;10.44;50.27;102666.81;5058944;28;47678;-74
2022/01/27 07:49:57;;;;;;;;;48.50;37.25;;;;;10.44;49.82;102662.16;5062331;28;45496;-80
2022/01/27 07:52:22;;;;;;;;;42.50;33.50;;;;;10.52;49.85;102664.97;5083135;28;45480;-73
2022/01/27 07:54:52;;;;;;;;;50.75;38.00;;;;;10.59;49.57;102662.44;5060006;28;45767;-76
2022/01/27 07:57:52;;;;;;;;;;;;;;;;;;;;;
2022/01/27 08:00:22;;;;;;;;;42.00;34.75;;;;;10.61;49.28;102654.91;5066868;28;73208;-79
2022/01/27 08:02:47;;;;;;;;;42.25;35.00;;;;;10.57;48.83;102659.00;5079486;28;45404;-79
2022/01/27 08:05:13;;;;;;;;;38.67;31.67;;;;;10.55;48.97;102672.00;5078024;28;45500;-79
2022/01/27 08:07:39;;;;;;;;;47.00;34.00;;;;;10.55;48.84;102677.50;5071654;28;46176;-74
2022/01/27 08:10:05;;;;;;;;;45.00;37.00;;;;;10.54;49.14;102670.31;5071468;28;45483;-73
2022/01/27 08:12:40;;;;;;;;;38.00;33.00;;;;;10.56;48.62;102669.09;5049569;27;45988;-73
2022/01/27 08:15:06;;;;;;;;;46.33;36.33;;;;;10.60;48.85;102670.50;5068091;28;45836;-78
2022/01/27 08:17:34;;;;;;;;;41.33;34.00;;;;;10.55;48.71;102666.53;5067623;28;47547;-74
2022/01/27 08:20:02;;;;;;;;;43.00;32.00;;;;;10.56;48.56;102673.75;5068019;28;45704;-72
2022/01/27 08:22:28;;;;;;;;;52.75;39.25;;;;;10.50;48.84;102660.69;5052319;28;46042;-77
2022/01/27 08:24:53;;;;;;;;;47.75;36.00;;;;;10.53;48.45;102671.31;5070201;28;45941;-80
2022/01/27 08:27:24;;;;;;;;;41.67;35.00;;;;;10.53;48.73;102669.44;5070427;28;45794;-79
2022/01/27 08:29:55;;;;;;;;;40.25;35.25;;;;;10.57;48.90;102675.47;5070474;28;45457;-79
2022/01/27 08:32:30;;;;;;;;;45.00;36.75;;;;;10.58;49.57;102682.66;5070438;28;45796;-80
2022/01/27 08:34:55;;;;;;;;;44.00;34.00;;;;;10.62;49.75;102680.47;5066564;28;45889;-73
2022/01/27 08:37:21;;;;;;;;;46.50;36.00;;;;;10.60;49.30;102683.38;5069300;28;46342;-79
2022/01/27 08:39:47;;;;;;;;;47.50;36.75;;;;;10.67;49.51;102681.69;5075136;28;45692;-79
2022/01/27 08:42:14;;;;;;;;;48.50;36.75;;;;;10.70;49.46;102686.88;5076731;28;45359;-73
2022/01/27 08:44:40;;;;;;;;;48.50;35.25;;;;;10.71;49.40;102671.25;5076318;28;45709;-81
2022/01/27 08:47:06;;;;;;;;;44.50;36.75;;;;;10.78;49.01;102670.44;5072910;27;46603;-74
2022/01/27 08:49:32;;;;;;;;;43.00;33.50;;;;;10.78;49.17;102662.22;5071007;27;45882;-73
2022/01/27 08:51:58;;;;;;;;;40.50;33.25;;;;;10.86;49.39;102671.53;5071324;27;45626;-73
2022/01/27 08:54:25;;;;;;;;;40.50;32.25;;;;;10.90;49.28;102675.66;5071546;27;46035;-74
2022/01/27 08:56:51;;;;;;;;;47.00;35.33;;;;;10.91;48.82;102671.88;5072009;27;45836;-74
2022/01/27 08:59:16;;;;;;;;;41.00;32.50;;;;;10.91;48.53;102663.66;5073426;27;45827;-74
2022/01/27 09:01:43;;;;;;;;;47.33;34.33;;;;;10.94;48.59;102660.56;5073101;27;45626;-75
2022/01/27 09:04:08;;;;;;;;;46.25;37.00;;;;;10.94;48.63;102660.56;5069787;27;45548;-74
2022/01/27 09:06:35;;;;;;;;;43.50;36.75;;;;;11.02;48.76;102667.97;5052708;27;45845;-74
2022/01/27 09:09:01;;;;;;;;;45.75;35.25;;;;;11.15;48.71;102662.88;5038266;27;45831;-74
2022/01/27 09:11:31;;;;;;;;;43.00;33.00;;;;;11.25;48.79;102668.25;5077238;27;45693;-80
2022/01/27 09:13:57;;;;;;;;;43.00;34.67;;;;;11.28;48.12;102645.94;5074813;27;45729;-80
2022/01/27 09:16:26;;;;;;;;;42.25;34.75;;;;;11.33;48.08;102651.78;5056526;28;47317;-79
2022/01/27 09:18:52;;;;;;;;;46.00;33.67;;;;;11.36;47.00;102648.75;5072167;28;45645;-81
2022/01/27 09:21:23;;;;;;;;;46.33;35.00;;;;;11.53;47.39;102646.03;5038241;27;45941;-73
2022/01/27 09:23:49;;;;;;;;;41.67;30.00;;;;;11.52;47.10;102647.06;5076790;27;46203;-72
2022/01/27 09:29:58;;;;;;;;;43.33;33.67;;;;;11.78;47.06;102661.53;5056960;28;45616;-70
2022/01/27 09:32:26;;;;;;;;;47.50;35.50;;;;;11.83;46.88;102656.38;5057430;28;45415;-78
2022/01/27 09:34:52;;;;;;;;;45.50;36.25;;;;;11.94;46.86;102657.94;5073768;28;45759;-79
2022/01/27 09:37:18;;;;;;;;;42.00;35.75;;;;;12.08;46.82;102659.19;5056105;28;48396;-79
2022/01/27 09:39:44;;;;;;;;;47.25;35.25;;;;;12.16;46.81;102656.41;5075936;28;45447;-78
2022/01/27 09:42:10;;;;;;;;;44.00;36.00;;;;;12.23;46.80;102650.22;5075124;28;45634;-71
2022/01/27 09:44:37;;;;;;;;;44.33;34.33;;;;;12.29;46.72;102649.53;5055645;28;45767;-80
2022/01/27 09:47:06;;;;;;;;;37.67;33.00;;;;;12.33;46.26;102650.91;5076257;28;45636;-79
2022/01/27 09:49:48;;;;;;;;;42.00;33.25;;;;;12.34;46.32;102658.13;5081165;27;45552;-73
2022/01/27 09:52:15;;;;;;;;;43.50;33.50;;;;;12.34;46.17;102649.88;5074351;28;45479;-72
2022/01/27 09:54:40;;;;;;;;;45.00;37.33;;;;;12.43;45.75;102654.34;5073326;28;45575;-71
2022/01/27 09:57:06;;;;;;;;;41.67;35.00;;;;;12.49;45.77;102644.53;5077215;27;45862;-77
2022/01/27 09:59:31;;;;;;;;;45.67;36.00;;;;;12.56;46.65;102644.66;5082295;28;45429;-79
2022/01/27 10:02:01;;;;;;;;;47.00;35.33;;;;;12.73;45.58;102640.84;5080458;28;45464;-78
2022/01/27 10:04:46;;;;;;;;;42.67;33.33;;;;;12.85;44.96;102646.84;5074533;28;45485;-77
2022/01/27 10:07:15;;;;;;;;;49.67;39.00;;;;;12.94;44.99;102644.91;5082005;28;45395;-78
2022/01/27 10:10:03;;;;;;;;;40.00;33.33;;;;;12.96;45.12;102640.94;5080970;28;45347;-77
2022/01/27 10:12:36;;;;;;;;;43.00;33.00;;;;;13.12;45.48;102650.19;5076012;28;45800;-77
2022/01/27 10:15:06;;;;;;;;;36.00;31.67;;;;;13.16;44.49;102646.00;5073664;28;45503;-79
2022/01/27 10:17:37;;;;;;;;;41.67;34.00;;;;;13.16;44.95;102646.00;5064576;28;46465;-75
2022/01/27 10:20:26;;;;;;;;;42.33;32.67;;;;;13.17;44.38;102648.63;5075960;28;45636;-77
2022/01/27 10:23:20;;;;;;;;;39.67;32.00;;;;;13.16;44.99;102651.53;5055778;28;45872;-72
2022/01/27 10:25:52;;;;;;;;;42.33;34.00;;;;;13.07;44.11;102642.47;5071377;28;45513;-72
2022/01/27 10:31:11;;;;;;;;;36.00;30.00;;;;;13.02;45.40;102650.38;5051305;28;45998;-71
2022/01/27 10:33:57;;;;;;;;;38.33;28.67;;;;;13.02;44.99;102644.88;5055752;28;45863;-76
2022/01/27 10:36:40;;;;;;;;;35.33;30.67;;;;;12.99;45.28;102634.22;5070551;28;45552;-78
2022/01/27 10:39:15;;;;;;;;;39.67;32.67;;;;;12.97;45.75;102633.53;5071136;28;45529;-77
2022/01/27 10:42:10;;;;;;;;;37.33;30.67;;;;;13.04;45.01;102635.41;5055443;28;46056;-79
2022/01/27 10:44:43;;;;;;;;;45.33;35.33;;;;;13.04;45.23;102635.41;5058945;28;46040;-78
2022/01/27 10:47:15;;;;;;;;;47.00;35.33;;;;;13.06;45.44;102632.47;5052618;28;45823;-73
2022/01/27 10:49:47;;;;;;;;;39.33;32.67;;;;;13.11;44.87;102621.75;5071617;28;45857;-80
2022/01/27 10:52:18;;;;;;;;;45.00;30.00;;;;;13.19;44.24;102624.47;5075348;27;45645;-73
2022/01/27 10:54:55;;;;;;;;;40.00;33.33;;;;;13.19;44.35;102646.53;5071900;28;45455;-79
2022/01/27 10:57:24;;;;;;;;;38.00;32.33;;;;;13.19;44.64;102640.16;5054505;28;45970;-80
2022/01/27 11:00:03;;;;;;;;;38.67;31.33;;;;;13.24;44.31;102638.56;5072654;28;47088;-79
2022/01/27 11:02:28;;;;;;;;;39.33;31.33;;;;;13.30;44.81;102649.91;5069155;28;45882;-79
2022/01/27 11:04:56;;;;;;;;;42.33;31.33;;;;;13.32;45.17;102642.31;5071462;28;45737;-80
2022/01/27 11:07:24;;;;;;;;;39.00;31.00;;;;;13.38;45.45;102650.78;5045892;28;45847;-78
2022/01/27 11:09:50;;;;;;;;;34.67;30.67;;;;;13.38;45.31;102644.38;5051160;28;47134;-73
2022/01/27 11:12:19;;;;;;;;;46.00;34.00;;;;;13.39;44.48;102648.88;5072170;27;45536;-73
2022/01/27 11:14:48;;;;;;;;;41.00;31.33;;;;;13.39;44.62;102640.59;5062351;27;47464;-72
2022/01/27 11:17:19;;;;;;;;;36.67;31.67;;;;;13.40;44.49;102647.84;5069679;27;46383;-81
2022/01/27 11:27:34;;;;;;;;;42.00;33.33;;;;;13.32;44.95;102637.66;5063146;27;46036;-74
2022/01/27 11:30:11;;;;;;;;;38.33;32.67;;;;;13.36;44.97;102635.44;5068669;28;45935;-75
2022/01/27 11:32:49;;;;;;;;;36.67;30.33;;;;;13.35;44.89;102625.47;5070169;28;45771;-79
2022/01/27 11:35:25;;;;;;;;;44.00;35.67;;;;;13.39;45.00;102630.41;5072773;27;46107;-79
2022/01/27 11:37:57;;;;;;;;;38.67;34.67;;;;;13.41;45.10;102628.38;5066439;27;45724;-73
2022/01/27 11:40:44;;;;;;;;;48.67;34.67;;;;;13.52;45.40;102623.47;5062175;28;46754;-73
2022/01/27 11:43:11;;;;;;;;;46.00;36.67;;;;;13.56;44.92;102614.66;5055549;28;45802;-80
2022/01/27 11:45:39;;;;;;;;;44.00;32.00;;;;;13.58;44.42;102595.19;5071868;28;45600;-80
2022/01/27 11:48:23;;;;;;;;;40.00;31.33;;;;;13.59;43.92;102595.00;5077273;28;45584;-84
2022/01/27 11:51:13;;;;;;;;;41.33;32.67;;;;;13.59;44.08;102603.25;5072781;28;47755;-82
2022/01/27 11:53:53;;;;;;;;;38.00;31.67;;;;;13.67;44.24;102601.50;5076430;28;45429;-82
2022/01/27 11:56:29;;;;;;;;;37.67;32.33;;;;;13.70;43.91;102601.13;5068287;28;45726;-82
2022/01/27 11:59:01;;;;;;;;;39.00;32.67;;;;;13.72;44.51;102607.31;5087521;28;44798;-81
2022/01/27 12:01:35;;;;;;;;;35.67;32.00;;;;;13.76;44.15;102608.66;5092376;28;45762;-76
2022/01/27 12:04:16;;;;;;;;;42.00;33.33;;;;;13.65;44.27;102595.28;5085373;27;45401;-76
2022/01/27 12:06:51;;;;;;;;;44.00;30.33;;;;;13.64;44.49;102599.06;5057272;28;45500;-76
2022/01/27 12:09:22;;;;;;;;;44.33;35.00;;;;;13.72;44.66;102596.28;5079978;28;45383;-74
2022/01/27 12:11:54;;;;;;;;;45.00;34.00;;;;;13.77;44.16;102604.84;5084736;28;45447;-73
2022/01/27 12:14:25;;;;;;;;;35.33;29.67;;;;;13.88;43.67;102600.81;5071297;28;44729;-75
2022/01/27 12:17:09;;;;;;;;;40.33;32.67;;;;;13.85;44.42;102612.22;5092625;28;45744;-82
2022/01/27 12:19:53;;;;;;;;;44.00;34.00;;;;;13.85;44.07;102613.06;5073119;28;45365;-81
2022/01/27 12:22:51;;;;;;;;;47.67;36.00;;;;;13.89;44.86;102605.25;5068566;28;46632;-75
2022/01/27 12:25:22;;;;;;;;;36.00;31.00;;;;;13.76;44.55;102595.72;5079151;28;45535;-82